Terminal Aerodrome Forecast
Issued by NWS Cleveland, OH

Home | Current Version | Previous Version | Text Only | Print | Product List | Glossary Off
Versions: 1 2 3 4 5 6 7 8 9 10 11 12 13 14 15 16 17

000
FTUS41 KCLE 230541
TAFERI
TAF
KERI 230541Z 2306/2406 19008KT P6SM SCT045 BKN120
     FM230800 20013G20KT P6SM BKN045 OVC060
      TEMPO 2310/2312 5SM -SHRA OVC025
     FM231200 20015G22KT 6SM -SHRA VCTS BKN015CB OVC045
      TEMPO 2312/2315 3SM -TSRA OVC008CB
     FM231500 22015G22KT 5SM -SHRA VCTS BKN015CB OVC025
      TEMPO 2315/2319 24012G20KT 1SM TSRA OVC005CB
     FM232300 25010KT P6SM BKN015 OVC025=

USA.gov is the U.S. government's official web portal to all federal, state and local government web resources and services.